sensor_id;sensor_type;location;lat;lon;timestamp;pressure;altitude;pressure_sealevel;temperature;humidity
58473;BME280;44775;51.564;5.460;2022-12-10T00:01:58;100572.88;;;-3.96;100.00
58473;BME280;44775;51.564;5.460;2022-12-10T00:04:23;100575.25;;;-3.91;100.00
58473;BME280;44775;51.564;5.460;2022-12-10T00:06:49;100579.78;;;-3.95;100.00
58473;BME280;44775;51.564;5.460;2022-12-10T00:09:16;100579.88;;;-3.96;100.00
58473;BME280;44775;51.564;5.460;2022-12-10T00:11:42;100585.34;;;-4.01;100.00
58473;BME280;44775;51.564;5.460;2022-12-10T00:14:09;100593.41;;;-4.06;100.00
58473;BME280;44775;51.564;5.460;2022-12-10T00:16:35;100593.72;;;-4.12;100.00
58473;BME280;44775;51.564;5.460;2022-12-10T00:19:01;100595.50;;;-4.12;100.00
58473;BME280;44775;51.564;5.460;2022-12-10T00:21:29;100588.00;;;-4.18;100.00
58473;BME280;44775;51.564;5.460;2022-12-10T00:23:55;100599.03;;;-4.13;100.00
58473;BME280;44775;51.564;5.460;2022-12-10T00:26:26;100598.03;;;-4.11;100.00
58473;BME280;44775;51.564;5.460;2022-12-10T00:28:52;100591.72;;;-4.07;100.00
58473;BME280;44775;51.564;5.460;2022-12-10T00:31:21;100588.97;;;-4.04;100.00
58473;BME280;44775;51.564;5.460;2022-12-10T00:33:48;100580.97;;;-4.00;100.00
58473;BME280;44775;51.564;5.460;2022-12-10T00:36:23;100595.53;;;-3.96;100.00
58473;BME280;44775;51.564;5.460;2022-12-10T00:38:49;100599.13;;;-3.99;100.00
58473;BME280;44775;51.564;5.460;2022-12-10T00:41:15;100605.28;;;-4.00;100.00
58473;BME280;44775;51.564;5.460;2022-12-10T00:43:41;100596.25;;;-4.10;100.00
58473;BME280;44775;51.564;5.460;2022-12-10T00:46:08;100598.78;;;-4.09;100.00
58473;BME280;44775;51.564;5.460;2022-12-10T00:48:34;100596.09;;;-4.07;100.00
58473;BME280;44775;51.564;5.460;2022-12-10T00:51:06;100589.72;;;-4.01;100.00
58473;BME280;44775;51.564;5.460;2022-12-10T00:53:33;100587.28;;;-4.05;100.00
58473;BME280;44775;51.564;5.460;2022-12-10T00:55:59;100581.38;;;-4.08;100.00
58473;BME280;44775;51.564;5.460;2022-12-10T00:58:27;100586.97;;;-4.16;100.00
58473;BME280;44775;51.564;5.460;2022-12-10T01:00:54;100576.88;;;-4.22;100.00
58473;BME280;44775;51.564;5.460;2022-12-10T01:03:19;100570.28;;;-4.29;100.00
58473;BME280;44775;51.564;5.460;2022-12-10T01:05:45;100574.81;;;-4.33;100.00
58473;BME280;44775;51.564;5.460;2022-12-10T01:08:11;100571.63;;;-4.38;100.00
58473;BME280;44775;51.564;5.460;2022-12-10T01:10:37;100567.25;;;-4.37;100.00
58473;BME280;44775;51.564;5.460;2022-12-10T01:13:03;100578.09;;;-4.45;100.00
58473;BME280;44775;51.564;5.460;2022-12-10T01:15:29;100567.13;;;-4.52;100.00
58473;BME280;44775;51.564;5.460;2022-12-10T01:17:55;100579.00;;;-4.46;100.00
58473;BME280;44775;51.564;5.460;2022-12-10T01:20:20;100591.81;;;-4.41;100.00
58473;BME280;44775;51.564;5.460;2022-12-10T01:22:46;100584.75;;;-4.39;100.00
58473;BME280;44775;51.564;5.460;2022-12-10T01:25:12;100574.81;;;-4.48;100.00
58473;BME280;44775;51.564;5.460;2022-12-10T01:27:37;100590.03;;;-4.41;100.00
58473;BME280;44775;51.564;5.460;2022-12-10T01:30:03;100595.56;;;-4.47;100.00
58473;BME280;44775;51.564;5.460;2022-12-10T01:32:28;100591.31;;;-4.65;100.00
58473;BME280;44775;51.564;5.460;2022-12-10T01:34:54;100587.78;;;-4.64;100.00
58473;BME280;44775;51.564;5.460;2022-12-10T01:37:19;100606.56;;;-4.58;100.00
58473;BME280;44775;51.564;5.460;2022-12-10T01:39:45;100613.31;;;-4.54;100.00
58473;BME280;44775;51.564;5.460;2022-12-10T01:42:12;100600.25;;;-4.54;100.00
58473;BME280;44775;51.564;5.460;2022-12-10T01:47:07;100595.94;;;-4.37;100.00
58473;BME280;44775;51.564;5.460;2022-12-10T01:49:36;100596.72;;;-4.35;100.00
58473;BME280;44775;51.564;5.460;2022-12-10T01:52:03;100603.47;;;-4.31;100.00
58473;BME280;44775;51.564;5.460;2022-12-10T01:54:37;100599.59;;;-4.24;100.00
58473;BME280;44775;51.564;5.460;2022-12-10T01:57:06;100607.78;;;-4.14;100.00
58473;BME280;44775;51.564;5.460;2022-12-10T01:59:33;100608.53;;;-4.12;100.00
58473;BME280;44775;51.564;5.460;2022-12-10T02:15:14;100613.31;;;-3.87;100.00
58473;BME280;44775;51.564;5.460;2022-12-10T02:17:48;100602.72;;;-3.84;100.00
58473;BME280;44775;51.564;5.460;2022-12-10T02:20:21;100609.78;;;-3.86;100.00
58473;BME280;44775;51.564;5.460;2022-12-10T02:22:54;100604.28;;;-3.82;100.00
58473;BME280;44775;51.564;5.460;2022-12-10T02:25:29;100606.22;;;-3.85;100.00
58473;BME280;44775;51.564;5.460;2022-12-10T02:30:39;100601.00;;;-3.85;100.00
58473;BME280;44775;51.564;5.460;2022-12-10T02:33:07;100609.78;;;-3.86;100.00
58473;BME280;44775;51.564;5.460;2022-12-10T02:35:35;100612.38;;;-3.86;100.00
58473;BME280;44775;51.564;5.460;2022-12-10T02:38:13;100608.59;;;-3.96;100.00
58473;BME280;44775;51.564;5.460;2022-12-10T02:40:45;100607.47;;;-3.92;100.00
58473;BME280;44775;51.564;5.460;2022-12-10T02:43:13;100605.13;;;-3.97;100.00
58473;BME280;44775;51.564;5.460;2022-12-10T02:45:41;100601.00;;;-4.01;100.00
58473;BME280;44775;51.564;5.460;2022-12-10T02:48:08;100600.84;;;-3.98;100.00
58473;BME280;44775;51.564;5.460;2022-12-10T02:50:34;100605.88;;;-3.95;100.00
58473;BME280;44775;51.564;5.460;2022-12-10T02:53:00;100610.19;;;-3.94;100.00
58473;BME280;44775;51.564;5.460;2022-12-10T02:55:25;100610.09;;;-3.92;100.00
58473;BME280;44775;51.564;5.460;2022-12-10T03:00:24;100613.22;;;-3.86;100.00
58473;BME280;44775;51.564;5.460;2022-12-10T03:05:58;100613.72;;;-3.79;100.00
58473;BME280;44775;51.564;5.460;2022-12-10T03:08:30;100611.28;;;-3.82;100.00
58473;BME280;44775;51.564;5.460;2022-12-10T03:11:14;100615.66;;;-3.83;100.00
58473;BME280;44775;51.564;5.460;2022-12-10T03:13:50;100613.66;;;-3.77;100.00
58473;BME280;44775;51.564;5.460;2022-12-10T03:16:19;100610.97;;;-3.76;100.00
58473;BME280;44775;51.564;5.460;2022-12-10T03:18:48;100615.41;;;-3.78;100.00
58473;BME280;44775;51.564;5.460;2022-12-10T03:21:15;100611.78;;;-3.75;100.00
58473;BME280;44775;51.564;5.460;2022-12-10T03:23:42;100625.47;;;-3.70;100.00
58473;BME280;44775;51.564;5.460;2022-12-10T03:26:11;100611.56;;;-3.71;100.00
58473;BME280;44775;51.564;5.460;2022-12-10T03:28:49;100613.91;;;-3.66;100.00
58473;BME280;44775;51.564;5.460;2022-12-10T03:31:15;100601.38;;;-3.60;100.00
58473;BME280;44775;51.564;5.460;2022-12-10T03:33:43;100612.75;;;-3.61;100.00
58473;BME280;44775;51.564;5.460;2022-12-10T03:36:09;100614.50;;;-3.61;100.00
58473;BME280;44775;51.564;5.460;2022-12-10T03:38:35;100605.31;;;-3.52;100.00
58473;BME280;44775;51.564;5.460;2022-12-10T03:41:02;100597.81;;;-3.59;100.00
58473;BME280;44775;51.564;5.460;2022-12-10T03:43:28;100608.03;;;-3.54;100.00
58473;BME280;44775;51.564;5.460;2022-12-10T03:45:53;100613.84;;;-3.49;100.00
58473;BME280;44775;51.564;5.460;2022-12-10T03:48:19;100603.56;;;-3.52;100.00
58473;BME280;44775;51.564;5.460;2022-12-10T03:50:44;100613.16;;;-3.52;100.00
58473;BME280;44775;51.564;5.460;2022-12-10T03:53:10;100618.22;;;-3.49;100.00
58473;BME280;44775;51.564;5.460;2022-12-10T03:55:35;100624.88;;;-3.44;100.00
58473;BME280;44775;51.564;5.460;2022-12-10T03:58:01;100621.59;;;-3.47;100.00
58473;BME280;44775;51.564;5.460;2022-12-10T04:00:26;100628.34;;;-3.43;100.00
58473;BME280;44775;51.564;5.460;2022-12-10T04:02:52;100630.69;;;-3.39;100.00
58473;BME280;44775;51.564;5.460;2022-12-10T04:05:17;100629.59;;;-3.35;100.00
58473;BME280;44775;51.564;5.460;2022-12-10T04:07:43;100593.53;;;-3.60;100.00
58473;BME280;44775;51.564;5.460;2022-12-10T04:10:08;100616.13;;;-3.43;100.00
58473;BME280;44775;51.564;5.460;2022-12-10T04:12:34;100629.19;;;-3.43;100.00
58473;BME280;44775;51.564;5.460;2022-12-10T04:14:59;100625.56;;;-3.40;100.00
58473;BME280;44775;51.564;5.460;2022-12-10T04:17:43;100636.59;;;-3.35;100.00
58473;BME280;44775;51.564;5.460;2022-12-10T04:20:09;100627.13;;;-3.38;100.00
58473;BME280;44775;51.564;5.460;2022-12-10T04:22:55;100631.53;;;-3.38;100.00
58473;BME280;44775;51.564;5.460;2022-12-10T04:25:39;100624.63;;;-3.39;100.00
58473;BME280;44775;51.564;5.460;2022-12-10T04:28:23;100625.78;;;-3.45;100.00
58473;BME280;44775;51.564;5.460;2022-12-10T04:30:48;100629.84;;;-3.39;100.00
58473;BME280;44775;51.564;5.460;2022-12-10T04:33:14;100638.53;;;-3.39;100.00
58473;BME280;44775;51.564;5.460;2022-12-10T04:35:39;100639.19;;;-3.35;100.00
58473;BME280;44775;51.564;5.460;2022-12-10T04:38:05;100634.81;;;-3.35;100.00
58473;BME280;44775;51.564;5.460;2022-12-10T04:40:30;100633.06;;;-3.34;100.00
58473;BME280;44775;51.564;5.460;2022-12-10T04:42:55;100630.50;;;-3.36;100.00
58473;BME280;44775;51.564;5.460;2022-12-10T04:45:21;100629.50;;;-3.33;100.00
58473;BME280;44775;51.564;5.460;2022-12-10T04:47:46;100645.09;;;-3.32;100.00
58473;BME280;44775;51.564;5.460;2022-12-10T04:50:12;100638.28;;;-3.34;100.00
58473;BME280;44775;51.564;5.460;2022-12-10T04:52:37;100640.91;;;-3.34;100.00
58473;BME280;44775;51.564;5.460;2022-12-10T04:55:03;100639.19;;;-3.35;100.00
58473;BME280;44775;51.564;5.460;2022-12-10T04:57:28;100646.88;;;-3.32;100.00
58473;BME280;44775;51.564;5.460;2022-12-10T04:59:54;100633.41;;;-3.40;100.00
58473;BME280;44775;51.564;5.460;2022-12-10T05:02:19;100649.66;;;-3.35;100.00
58473;BME280;44775;51.564;5.460;2022-12-10T05:04:45;100652.19;;;-3.34;100.00
58473;BME280;44775;51.564;5.460;2022-12-10T05:07:10;100652.03;;;-3.30;100.00
58473;BME280;44775;51.564;5.460;2022-12-10T05:09:37;100653.59;;;-3.28;100.00
58473;BME280;44775;51.564;5.460;2022-12-10T05:12:03;100644.94;;;-3.28;100.00
58473;BME280;44775;51.564;5.460;2022-12-10T05:14:28;100643.16;;;-3.28;100.00
58473;BME280;44775;51.564;5.460;2022-12-10T05:16:54;100639.63;;;-3.27;100.00
58473;BME280;44775;51.564;5.460;2022-12-10T05:19:19;100642.06;;;-3.24;100.00
58473;BME280;44775;51.564;5.460;2022-12-10T05:21:46;100648.88;;;-3.21;100.00
58473;BME280;44775;51.564;5.460;2022-12-10T05:24:30;100643.59;;;-3.20;100.00
58473;BME280;44775;51.564;5.460;2022-12-10T05:26:57;100648.72;;;-3.18;100.00
58473;BME280;44775;51.564;5.460;2022-12-10T05:29:22;100652.16;;;-3.18;100.00
58473;BME280;44775;51.564;5.460;2022-12-10T05:31:48;100643.41;;;-3.17;100.00
58473;BME280;44775;51.564;5.460;2022-12-10T05:34:13;100644.16;;;-3.15;100.00
58473;BME280;44775;51.564;5.460;2022-12-10T05:36:39;100647.25;;;-3.08;100.00
58473;BME280;44775;51.564;5.460;2022-12-10T05:39:06;100648.63;;;-3.17;100.00
58473;BME280;44775;51.564;5.460;2022-12-10T05:41:35;100644.31;;;-3.18;100.00
58473;BME280;44775;51.564;5.460;2022-12-10T05:44:02;100647.09;;;-3.21;100.00
58473;BME280;44775;51.564;5.460;2022-12-10T05:46:29;100635.13;;;-3.25;100.00
58473;BME280;44775;51.564;5.460;2022-12-10T05:48:56;100636.91;;;-3.25;100.00
58473;BME280;44775;51.564;5.460;2022-12-10T05:51:24;100644.50;;;-3.21;100.00
58473;BME280;44775;51.564;5.460;2022-12-10T05:53:51;100649.53;;;-3.18;100.00
58473;BME280;44775;51.564;5.460;2022-12-10T05:56:19;100649.66;;;-3.19;100.00
58473;BME280;44775;51.564;5.460;2022-12-10T05:58:46;100653.25;;;-3.22;100.00
58473;BME280;44775;51.564;5.460;2022-12-10T06:01:17;100658.44;;;-3.20;100.00
58473;BME280;44775;51.564;5.460;2022-12-10T06:03:43;100656.81;;;-3.23;100.00
58473;BME280;44775;51.564;5.460;2022-12-10T06:06:10;100668.00;;;-3.21;100.00
58473;BME280;44775;51.564;5.460;2022-12-10T06:08:35;100657.91;;;-3.27;100.00
58473;BME280;44775;51.564;5.460;2022-12-10T06:11:05;100665.50;;;-3.22;100.00
58473;BME280;44775;51.564;5.460;2022-12-10T06:13:32;100668.09;;;-3.22;100.00
58473;BME280;44775;51.564;5.460;2022-12-10T06:15:57;100657.50;;;-3.19;100.00
58473;BME280;44775;51.564;5.460;2022-12-10T06:18:23;100659.25;;;-3.20;100.00
58473;BME280;44775;51.564;5.460;2022-12-10T06:20:49;100656.66;;;-3.20;100.00
58473;BME280;44775;51.564;5.460;2022-12-10T06:23:14;100658.31;;;-3.19;100.00
58473;BME280;44775;51.564;5.460;2022-12-10T06:25:40;100654.03;;;-3.20;100.00
58473;BME280;44775;51.564;5.460;2022-12-10T06:28:07;100658.31;;;-3.19;100.00
58473;BME280;44775;51.564;5.460;2022-12-10T06:30:33;100651.50;;;-3.21;100.00
58473;BME280;44775;51.564;5.460;2022-12-10T06:32:59;100657.56;;;-3.21;100.00
58473;BME280;44775;51.564;5.460;2022-12-10T06:35:25;100654.88;;;-3.19;100.00
58473;BME280;44775;51.564;5.460;2022-12-10T06:37:51;100659.09;;;-3.17;100.00
58473;BME280;44775;51.564;5.460;2022-12-10T06:40:16;100673.00;;;-3.16;100.00
58473;BME280;44775;51.564;5.460;2022-12-10T06:42:42;100674.69;;;-3.15;100.00
58473;BME280;44775;51.564;5.460;2022-12-10T06:45:08;100671.31;;;-3.17;100.00
58473;BME280;44775;51.564;5.460;2022-12-10T06:47:34;100675.34;;;-3.12;100.00
58473;BME280;44775;51.564;5.460;2022-12-10T06:49:59;100674.19;;;-3.06;100.00
58473;BME280;44775;51.564;5.460;2022-12-10T06:52:25;100680.13;;;-3.04;100.00
58473;BME280;44775;51.564;5.460;2022-12-10T06:54:50;100678.56;;;-3.06;100.00
58473;BME280;44775;51.564;5.460;2022-12-10T06:57:16;100687.16;;;-3.04;100.00
58473;BME280;44775;51.564;5.460;2022-12-10T06:59:42;100687.91;;;-3.02;100.00
58473;BME280;44775;51.564;5.460;2022-12-10T07:02:09;100688.91;;;-3.05;100.00
58473;BME280;44775;51.564;5.460;2022-12-10T07:04:35;100698.53;;;-3.05;100.00
58473;BME280;44775;51.564;5.460;2022-12-10T07:07:01;100699.47;;;-3.06;100.00
58473;BME280;44775;51.564;5.460;2022-12-10T07:09:27;100696.88;;;-3.06;100.00
58473;BME280;44775;51.564;5.460;2022-12-10T07:11:52;100697.38;;;-3.00;100.00
58473;BME280;44775;51.564;5.460;2022-12-10T07:14:18;100703.16;;;-3.11;100.00
58473;BME280;44775;51.564;5.460;2022-12-10T07:16:44;100704.88;;;-3.10;100.00
58473;BME280;44775;51.564;5.460;2022-12-10T07:19:11;100705.44;;;-3.04;100.00
58473;BME280;44775;51.564;5.460;2022-12-10T07:21:39;100693.97;;;-3.02;100.00
58473;BME280;44775;51.564;5.460;2022-12-10T07:24:09;100696.88;;;-3.06;100.00
58473;BME280;44775;51.564;5.460;2022-12-10T07:26:38;100707.88;;;-3.01;100.00
58473;BME280;44775;51.564;5.460;2022-12-10T07:29:04;100705.59;;;-3.08;100.00
58473;BME280;44775;51.564;5.460;2022-12-10T07:31:30;100701.31;;;-3.09;100.00
58473;BME280;44775;51.564;5.460;2022-12-10T07:33:57;100707.03;;;-2.86;100.00
58473;BME280;44775;51.564;5.460;2022-12-10T07:36:24;100715.41;;;-2.95;100.00
58473;BME280;44775;51.564;5.460;2022-12-10T07:38:53;100714.22;;;-2.90;100.00
58473;BME280;44775;51.564;5.460;2022-12-10T07:41:20;100718.13;;;-2.97;100.00
58473;BME280;44775;51.564;5.460;2022-12-10T07:43:46;100723.41;;;-2.98;100.00
58473;BME280;44775;51.564;5.460;2022-12-10T07:46:17;100711.28;;;-2.99;100.00
58473;BME280;44775;51.564;5.460;2022-12-10T07:48:44;100722.47;;;-2.97;100.00
58473;BME280;44775;51.564;5.460;2022-12-10T07:51:10;100710.59;;;-3.03;100.00
58473;BME280;44775;51.564;5.460;2022-12-10T07:53:36;100720.78;;;-2.98;100.00
58473;BME280;44775;51.564;5.460;2022-12-10T07:56:03;100721.63;;;-2.98;100.00
58473;BME280;44775;51.564;5.460;2022-12-10T07:58:29;100727.28;;;-2.90;100.00
58473;BME280;44775;51.564;5.460;2022-12-10T08:00:54;100724.59;;;-2.88;100.00
58473;BME280;44775;51.564;5.460;2022-12-10T08:03:20;100727.78;;;-2.83;100.00
58473;BME280;44775;51.564;5.460;2022-12-10T08:05:45;100714.63;;;-2.81;100.00
58473;BME280;44775;51.564;5.460;2022-12-10T08:08:11;100723.25;;;-2.79;100.00
58473;BME280;44775;51.564;5.460;2022-12-10T08:10:37;100727.44;;;-2.77;100.00
58473;BME280;44775;51.564;5.460;2022-12-10T08:13:04;100735.72;;;-2.85;100.00
58473;BME280;44775;51.564;5.460;2022-12-10T08:15:30;100734.97;;;-2.87;100.00
58473;BME280;44775;51.564;5.460;2022-12-10T08:17:56;100749.47;;;-2.81;100.00
58473;BME280;44775;51.564;5.460;2022-12-10T08:20:23;100755.28;;;-2.76;100.00
58473;BME280;44775;51.564;5.460;2022-12-10T08:22:48;100761.34;;;-2.75;100.00
58473;BME280;44775;51.564;5.460;2022-12-10T08:25:14;100757.13;;;-2.78;100.00
58473;BME280;44775;51.564;5.460;2022-12-10T08:27:39;100756.13;;;-2.75;100.00
58473;BME280;44775;51.564;5.460;2022-12-10T08:30:05;100757.97;;;-2.77;100.00
58473;BME280;44775;51.564;5.460;2022-12-10T08:32:31;100757.97;;;-2.77;100.00
58473;BME280;44775;51.564;5.460;2022-12-10T08:34:56;100760.53;;;-2.76;100.00
58473;BME280;44775;51.564;5.460;2022-12-10T08:37:22;100765.59;;;-2.73;100.00
58473;BME280;44775;51.564;5.460;2022-12-10T08:39:47;100767.75;;;-2.81;100.00
58473;BME280;44775;51.564;5.460;2022-12-10T08:42:13;100773.00;;;-2.65;100.00
58473;BME280;44775;51.564;5.460;2022-12-10T08:44:38;100763.38;;;-2.80;100.00
58473;BME280;44775;51.564;5.460;2022-12-10T08:47:04;100769.47;;;-2.80;100.00
58473;BME280;44775;51.564;5.460;2022-12-10T08:49:30;100775.00;;;-2.70;100.00
58473;BME280;44775;51.564;5.460;2022-12-10T08:51:55;100775.09;;;-2.72;100.00
58473;BME280;44775;51.564;5.460;2022-12-10T08:54:21;100778.22;;;-2.81;100.00
58473;BME280;44775;51.564;5.460;2022-12-10T08:56:46;100780.59;;;-2.76;100.00
58473;BME280;44775;51.564;5.460;2022-12-10T08:59:11;100780.06;;;-2.67;100.00
58473;BME280;44775;51.564;5.460;2022-12-10T09:01:38;100779.22;;;-2.68;100.00
58473;BME280;44775;51.564;5.460;2022-12-10T09:04:04;100779.72;;;-2.61;100.00
58473;BME280;44775;51.564;5.460;2022-12-10T09:06:30;100778.47;;;-2.54;100.00
58473;BME280;44775;51.564;5.460;2022-12-10T09:08:56;100781.41;;;-2.44;100.00
58473;BME280;44775;51.564;5.460;2022-12-10T09:11:27;100776.28;;;-2.46;100.00
58473;BME280;44775;51.564;5.460;2022-12-10T09:13:53;100777.09;;;-2.45;100.00
58473;BME280;44775;51.564;5.460;2022-12-10T09:16:19;100782.56;;;-2.50;100.00
58473;BME280;44775;51.564;5.460;2022-12-10T09:18:45;100790.69;;;-2.54;100.00
58473;BME280;44775;51.564;5.460;2022-12-10T09:21:13;100790.25;;;-2.47;100.00
58473;BME280;44775;51.564;5.460;2022-12-10T09:23:39;100780.66;;;-2.46;100.00
58473;BME280;44775;51.564;5.460;2022-12-10T09:26:07;100788.41;;;-2.45;100.00
58473;BME280;44775;51.564;5.460;2022-12-10T09:28:35;100795.25;;;-2.42;100.00
58473;BME280;44775;51.564;5.460;2022-12-10T09:31:02;100795.25;;;-2.42;100.00
58473;BME280;44775;51.564;5.460;2022-12-10T09:33:29;100792.72;;;-2.44;100.00
58473;BME280;44775;51.564;5.460;2022-12-10T09:35:56;100807.41;;;-2.41;100.00
58473;BME280;44775;51.564;5.460;2022-12-10T09:38:22;100805.38;;;-2.36;100.00
58473;BME280;44775;51.564;5.460;2022-12-10T09:40:56;100811.63;;;-2.39;100.00
58473;BME280;44775;51.564;5.460;2022-12-10T09:43:41;100805.09;;;-2.31;100.00
58473;BME280;44775;51.564;5.460;2022-12-10T09:51:45;100815.63;;;-2.17;100.00
58473;BME280;44775;51.564;5.460;2022-12-10T09:54:21;100803.13;;;-2.12;100.00
58473;BME280;44775;51.564;5.460;2022-12-10T09:56:50;100814.84;;;-2.03;100.00
58473;BME280;44775;51.564;5.460;2022-12-10T09:59:37;100814.44;;;-2.11;100.00
58473;BME280;44775;51.564;5.460;2022-12-10T10:04:45;100818.16;;;-2.16;100.00
58473;BME280;44775;51.564;5.460;2022-12-10T10:07:20;100826.41;;;-2.07;100.00
58473;BME280;44775;51.564;5.460;2022-12-10T10:09:47;100831.94;;;-2.12;100.00
58473;BME280;44775;51.564;5.460;2022-12-10T10:12:14;100822.91;;;-2.22;100.00
58473;BME280;44775;51.564;5.460;2022-12-10T10:14:42;100825.88;;;-2.28;100.00
58473;BME280;44775;51.564;5.460;2022-12-10T10:17:13;100829.72;;;-2.20;100.00
58473;BME280;44775;51.564;5.460;2022-12-10T10:19:41;100833.00;;;-2.16;100.00
58473;BME280;44775;51.564;5.460;2022-12-10T10:22:10;100835.78;;;-2.03;100.00
58473;BME280;44775;51.564;5.460;2022-12-10T10:24:43;100833.75;;;-1.98;100.00
58473;BME280;44775;51.564;5.460;2022-12-10T10:27:19;100834.59;;;-1.98;100.00
58473;BME280;44775;51.564;5.460;2022-12-10T10:29:48;100839.06;;;-2.00;100.00
58473;BME280;44775;51.564;5.460;2022-12-10T10:32:18;100834.25;;;-1.92;100.00
58473;BME280;44775;51.564;5.460;2022-12-10T10:34:46;100831.13;;;-1.98;100.00
58473;BME280;44775;51.564;5.460;2022-12-10T10:37:24;100824.41;;;-2.02;100.00
58473;BME280;44775;51.564;5.460;2022-12-10T10:39:51;100826.91;;;-2.01;100.00
58473;BME280;44775;51.564;5.460;2022-12-10T10:44:52;100825.31;;;-2.03;100.00
58473;BME280;44775;51.564;5.460;2022-12-10T10:47:44;100831.63;;;-1.92;100.00
58473;BME280;44775;51.564;5.460;2022-12-10T10:50:23;100832.47;;;-1.91;100.00
58473;BME280;44775;51.564;5.460;2022-12-10T10:52:50;100821.56;;;-1.99;100.00
58473;BME280;44775;51.564;5.460;2022-12-10T10:55:31;100817.94;;;-1.97;100.00
58473;BME280;44775;51.564;5.460;2022-12-10T10:58:00;100820.09;;;-1.89;100.00
58473;BME280;44775;51.564;5.460;2022-12-10T11:00:26;100824.69;;;-1.93;100.00
58473;BME280;44775;51.564;5.460;2022-12-10T11:02:52;100833.75;;;-1.98;100.00
58473;BME280;44775;51.564;5.460;2022-12-10T11:05:25;100818.56;;;-2.07;100.00
58473;BME280;44775;51.564;5.460;2022-12-10T11:08:04;100811.84;;;-1.97;100.00
58473;BME280;44775;51.564;5.460;2022-12-10T11:10:30;100813.63;;;-2.28;100.00
58473;BME280;44775;51.564;5.460;2022-12-10T11:13:25;100808.56;;;-2.31;100.00
58473;BME280;44775;51.564;5.460;2022-12-10T11:16:22;100810.84;;;-2.25;100.00
58473;BME280;44775;51.564;5.460;2022-12-10T11:19:00;100808.56;;;-2.31;100.00
58473;BME280;44775;51.564;5.460;2022-12-10T11:21:30;100815.38;;;-2.12;100.00
58473;BME280;44775;51.564;5.460;2022-12-10T11:23:57;100814.78;;;-2.18;100.00
58473;BME280;44775;51.564;5.460;2022-12-10T11:51:03;100801.66;;;-1.72;100.00
58473;BME280;44775;51.564;5.460;2022-12-10T11:58:48;100807.25;;;-1.63;100.00
58473;BME280;44775;51.564;5.460;2022-12-10T12:02:26;100806.31;;;-1.62;100.00
58473;BME280;44775;51.564;5.460;2022-12-10T12:12:57;100812.50;;;-1.49;100.00
58473;BME280;44775;51.564;5.460;2022-12-10T12:15:44;100809.69;;;-1.46;100.00
58473;BME280;44775;51.564;5.460;2022-12-10T12:20:43;100803.44;;;-1.58;100.00
58473;BME280;44775;51.564;5.460;2022-12-10T12:26:11;100805.56;;;-1.64;100.00
58473;BME280;44775;51.564;5.460;2022-12-10T12:28:46;100806.69;;;-1.69;100.00
58473;BME280;44775;51.564;5.460;2022-12-10T12:31:20;100802.38;;;-1.70;100.00
58473;BME280;44775;51.564;5.460;2022-12-10T12:34:02;100811.94;;;-1.69;100.00
58473;BME280;44775;51.564;5.460;2022-12-10T12:36:33;100808.09;;;-1.63;100.00
58473;BME280;44775;51.564;5.460;2022-12-10T12:39:05;100808.94;;;-1.62;100.00
58473;BME280;44775;51.564;5.460;2022-12-10T12:47:16;100811.72;;;-1.66;100.00
58473;BME280;44775;51.564;5.460;2022-12-10T12:49:45;100813.44;;;-1.64;100.00
58473;BME280;44775;51.564;5.460;2022-12-10T12:52:33;100808.31;;;-1.52;100.00
58473;BME280;44775;51.564;5.460;2022-12-10T12:55:16;100807.28;;;-1.35;100.00
58473;BME280;44775;51.564;5.460;2022-12-10T12:57:50;100808.97;;;-1.34;100.00
58473;BME280;44775;51.564;5.460;2022-12-10T13:00:20;100801.47;;;-1.40;100.00
58473;BME280;44775;51.564;5.460;2022-12-10T13:05:38;100811.41;;;-1.31;100.00
58473;BME280;44775;51.564;5.460;2022-12-10T13:15:53;100819.16;;;-1.44;100.00
58473;BME280;44775;51.564;5.460;2022-12-10T13:18:34;100818.22;;;-1.43;100.00
58473;BME280;44775;51.564;5.460;2022-12-10T13:21:27;100815.72;;;-1.44;100.00
58473;BME280;44775;51.564;5.460;2022-12-10T13:24:04;100823.00;;;-1.49;100.00
58473;BME280;44775;51.564;5.460;2022-12-10T13:26:30;100805.88;;;-1.55;100.00
58473;BME280;44775;51.564;5.460;2022-12-10T13:32:04;100816.44;;;-1.56;100.00
58473;BME280;44775;51.564;5.460;2022-12-10T13:34:36;100816.72;;;-1.61;100.00
58473;BME280;44775;51.564;5.460;2022-12-10T13:37:06;100826.97;;;-1.72;100.00
58473;BME280;44775;51.564;5.460;2022-12-10T13:45:04;100816.94;;;-1.80;100.00
58473;BME280;44775;51.564;5.460;2022-12-10T13:50:06;100824.06;;;-1.82;100.00
58473;BME280;44775;51.564;5.460;2022-12-10T13:55:46;100825.81;;;-1.82;100.00
58473;BME280;44775;51.564;5.460;2022-12-10T13:58:22;100829.38;;;-1.83;100.00
58473;BME280;44775;51.564;5.460;2022-12-10T14:01:31;100828.84;;;-1.74;100.00
58473;BME280;44775;51.564;5.460;2022-12-10T14:06:25;100833.44;;;-1.78;100.00
58473;BME280;44775;51.564;5.460;2022-12-10T14:11:26;100855.22;;;-1.77;100.00
58473;BME280;44775;51.564;5.460;2022-12-10T14:13:56;100848.97;;;-1.75;100.00
58473;BME280;44775;51.564;5.460;2022-12-10T14:16:28;100851.50;;;-1.73;100.00
58473;BME280;44775;51.564;5.460;2022-12-10T14:18:57;100852.34;;;-1.73;100.00
58473;BME280;44775;51.564;5.460;2022-12-10T14:21:24;100853.09;;;-1.71;100.00
58473;BME280;44775;51.564;5.460;2022-12-10T14:23:52;100851.97;;;-1.67;100.00
58473;BME280;44775;51.564;5.460;2022-12-10T14:26:32;100858.22;;;-1.69;100.00
58473;BME280;44775;51.564;5.460;2022-12-10T14:29:17;100850.47;;;-1.71;100.00
58473;BME280;44775;51.564;5.460;2022-12-10T14:31:49;100852.75;;;-1.64;100.00
58473;BME280;44775;51.564;5.460;2022-12-10T14:34:23;100853.38;;;-1.75;100.00
58473;BME280;44775;51.564;5.460;2022-12-10T14:36:52;100849.16;;;-1.78;100.00
58473;BME280;44775;51.564;5.460;2022-12-10T14:39:26;100852.88;;;-1.82;100.00
58473;BME280;44775;51.564;5.460;2022-12-10T14:42:04;100847.34;;;-1.92;100.00
58473;BME280;44775;51.564;5.460;2022-12-10T14:44:31;100858.47;;;-1.88;100.00